Gure Amuitz — EASO — position and weather

sailwx.info

Track history (hours):
 
Tides and Currents Weather Stations Pressure Air Temp Water Temp Dewpoint Dewpoint Depression Visibility Wind Speed Wind Dir Waves Ship Positions

Gure Amuitz

Last reported at 2017-Mar-24 09:27 UTC. Time now 2017-Mar-26 22:55 UTC.
Position N 43°23' W 001°47'.

Length 28 m.

Type: Fishing. MMSI: 224010590.

Date/timePositionNaut miles runAvg speedWind from/ knotsBaromVisibWave heightAir tempDewpointWater temp
2017-Mar-24 09:27N 43°23' W 001°47'0 0.0
2017-Mar-24 08:33N 43°23' W 001°47'0 0.0
2017-Mar-22 18:33N 43°23' W 001°48'0 0.0
2017-Mar-22 07:34N 43°23' W 001°48'0 0.0
2017-Mar-22 06:34N 43°23' W 001°48'5 5.2
2017-Mar-22 05:31N 43°25' W 001°55'4 2.7
2017-Mar-22 04:14N 43°28' W 001°54'7 9.8
2017-Mar-22 03:28N 43°35' W 001°49'6 0.6
2017-Mar-21 17:28N 43°40' W 001°43'7 7.5
2017-Mar-21 16:33N 43°33' W 001°45'7 7.3
2017-Mar-21 15:33N 43°26' W 001°47'3 0.4
2017-Mar-21 08:22N 43°23' W 001°47'0 0.0
2017-Mar-21 07:33N 43°23' W 001°47'0 0.0
2017-Mar-21 06:33N 43°23' W 001°47'7 6.5
2017-Mar-21 05:32N 43°21' W 001°56'4 1.1
2017-Mar-21 02:04N 43°25' W 001°55'0 0.5
2017-Mar-21 01:32N 43°25' W 001°55'1 0.7
2017-Mar-21 00:32N 43°24' W 001°56'1 0.8
2017-Mar-20 23:33N 43°23' W 001°56'5 5.3
2017-Mar-20 22:33N 43°24' W 001°49'9 8.9
2017-Mar-20 21:33N 43°33' W 001°45'8 8.5
2017-Mar-20 20:33N 43°40' W 001°39'1 0.6
2017-Mar-20 19:32N 43°40' W 001°39'7 7.6
2017-Mar-20 18:33N 43°33' W 001°42'8 7.6
2017-Mar-20 17:33N 43°26' W 001°46'3 0.4
2017-Mar-20 10:13N 43°23' W 001°47'0 0.0
2017-Mar-20 09:33N 43°23' W 001°47'0 0.0
2017-Mar-20 08:33N 43°23' W 001°47'  
2017-Mar-17 11:33N 43°23' W 001°47'0 0.1
2017-Mar-17 10:33N 43°23' W 001°48'0 0.0
2017-Mar-17 09:33N 43°23' W 001°48'0 0.0
2017-Mar-17 08:33N 43°23' W 001°47'0 0.0
2017-Mar-17 07:33N 43°23' W 001°47'0 0.5
2017-Mar-17 06:33N 43°24' W 001°47'24 9.6
2017-Mar-17 04:04N 43°26' W 002°20'1510.0
2017-Mar-17 02:33N 43°28' W 002°40'3 2.9
2017-Mar-17 01:31N 43°29' W 002°44'34 3.4
2017-Mar-16 15:33N 43°24' W 001°58'8 7.7
2017-Mar-16 14:33N 43°23' W 001°47'0 0.0
2017-Mar-16 09:22N 43°23' W 001°47'0 0.0
2017-Mar-16 08:33N 43°23' W 001°47'0 0.0
2017-Mar-16 07:33N 43°23' W 001°47'0 0.0
2017-Mar-16 06:33N 43°23' W 001°47'1 0.5
2017-Mar-16 05:33N 43°24' W 001°47'49 4.7
2017-Mar-15 19:07N 43°29' W 002°54'8 4.9
2017-Mar-15 17:28N 43°29' W 002°42'30 8.8
2017-Mar-15 14:06N 43°24' W 002°02'5 9.3
2017-Mar-15 13:33N 43°24' W 001°55'6 5.7
2017-Mar-15 12:33N 43°23' W 001°47'0 0.1
2017-Mar-15 11:33N 43°23' W 001°48'0 0.0
2017-Mar-15 06:33N 43°23' W 001°48'0 0.0
2017-Mar-15 05:33N 43°23' W 001°48'0 0.1
2017-Mar-15 04:33N 43°23' W 001°47'2 2.0
2017-Mar-15 03:33N 43°24' W 001°50'2 0.1
2017-Mar-14 13:33N 43°24' W 001°53'4 3.9
2017-Mar-14 12:33N 43°23' W 001°48'0 0.1
2017-Mar-14 11:34N 43°23' W 001°47'0 0.0
2017-Mar-14 10:34N 43°23' W 001°47'2 1.6
2017-Mar-14 09:34N 43°24' W 001°49'  
Track history (hours):
 
Tides and Currents Weather Stations Pressure Air Temp Water Temp Dewpoint Dewpoint Depression Visibility Wind Speed Wind Dir Waves Ship Positions

Gure Amuitz

Last reported at 2017-Mar-24 09:27 UTC. Time now 2017-Mar-26 22:55 UTC.
Position N 43°23' W 001°47'.

Length 28 m.

Type: Fishing. MMSI: 224010590.

Date/timePositionNaut miles runAvg speedWind from/ knotsBaromVisibWave heightAir tempDewpointWater temp
2017-Mar-24 09:27N 43°23' W 001°47'0 0.0
2017-Mar-24 08:33N 43°23' W 001°47'0 0.0
2017-Mar-22 18:33N 43°23' W 001°48'0 0.0
2017-Mar-22 07:34N 43°23' W 001°48'0 0.0
2017-Mar-22 06:34N 43°23' W 001°48'5 5.2
2017-Mar-22 05:31N 43°25' W 001°55'4 2.7
2017-Mar-22 04:14N 43°28' W 001°54'7 9.8
2017-Mar-22 03:28N 43°35' W 001°49'6 0.6
2017-Mar-21 17:28N 43°40' W 001°43'7 7.5
2017-Mar-21 16:33N 43°33' W 001°45'7 7.3
2017-Mar-21 15:33N 43°26' W 001°47'3 0.4
2017-Mar-21 08:22N 43°23' W 001°47'0 0.0
2017-Mar-21 07:33N 43°23' W 001°47'0 0.0
2017-Mar-21 06:33N 43°23' W 001°47'7 6.5
2017-Mar-21 05:32N 43°21' W 001°56'4 1.1
2017-Mar-21 02:04N 43°25' W 001°55'0 0.5
2017-Mar-21 01:32N 43°25' W 001°55'1 0.7
2017-Mar-21 00:32N 43°24' W 001°56'1 0.8
2017-Mar-20 23:33N 43°23' W 001°56'5 5.3
2017-Mar-20 22:33N 43°24' W 001°49'9 8.9
2017-Mar-20 21:33N 43°33' W 001°45'8 8.5
2017-Mar-20 20:33N 43°40' W 001°39'1 0.6
2017-Mar-20 19:32N 43°40' W 001°39'7 7.6
2017-Mar-20 18:33N 43°33' W 001°42'8 7.6
2017-Mar-20 17:33N 43°26' W 001°46'3 0.4
2017-Mar-20 10:13N 43°23' W 001°47'0 0.0
2017-Mar-20 09:33N 43°23' W 001°47'0 0.0
2017-Mar-20 08:33N 43°23' W 001°47'  
2017-Mar-17 11:33N 43°23' W 001°47'0 0.1
2017-Mar-17 10:33N 43°23' W 001°48'0 0.0
2017-Mar-17 09:33N 43°23' W 001°48'0 0.0
2017-Mar-17 08:33N 43°23' W 001°47'0 0.0
2017-Mar-17 07:33N 43°23' W 001°47'0 0.5
2017-Mar-17 06:33N 43°24' W 001°47'24 9.6
2017-Mar-17 04:04N 43°26' W 002°20'1510.0
2017-Mar-17 02:33N 43°28' W 002°40'3 2.9
2017-Mar-17 01:31N 43°29' W 002°44'34 3.4
2017-Mar-16 15:33N 43°24' W 001°58'8 7.7
2017-Mar-16 14:33N 43°23' W 001°47'0 0.0
2017-Mar-16 09:22N 43°23' W 001°47'0 0.0
2017-Mar-16 08:33N 43°23' W 001°47'0 0.0
2017-Mar-16 07:33N 43°23' W 001°47'0 0.0
2017-Mar-16 06:33N 43°23' W 001°47'1 0.5
2017-Mar-16 05:33N 43°24' W 001°47'49 4.7
2017-Mar-15 19:07N 43°29' W 002°54'8 4.9
2017-Mar-15 17:28N 43°29' W 002°42'30 8.8
2017-Mar-15 14:06N 43°24' W 002°02'5 9.3
2017-Mar-15 13:33N 43°24' W 001°55'6 5.7
2017-Mar-15 12:33N 43°23' W 001°47'0 0.1
2017-Mar-15 11:33N 43°23' W 001°48'0 0.0
2017-Mar-15 06:33N 43°23' W 001°48'0 0.0
2017-Mar-15 05:33N 43°23' W 001°48'0 0.1
2017-Mar-15 04:33N 43°23' W 001°47'2 2.0
2017-Mar-15 03:33N 43°24' W 001°50'2 0.1
2017-Mar-14 13:33N 43°24' W 001°53'4 3.9
2017-Mar-14 12:33N 43°23' W 001°48'0 0.1
2017-Mar-14 11:34N 43°23' W 001°47'0 0.0
2017-Mar-14 10:34N 43°23' W 001°47'2 1.6
2017-Mar-14 09:34N 43°24' W 001°49'  

Dump ship's entire track history